createdAt,value
2017-11-17T00:00:26.142Z,100.0
2017-11-17T00:01:27.747Z,100.0
2017-11-17T00:02:29.360Z,100.0
2017-11-17T00:03:30.969Z,100.0
2017-11-17T00:04:32.582Z,100.0
2017-11-17T00:05:34.196Z,100.0
2017-11-17T00:06:35.797Z,100.0
2017-11-17T00:07:37.405Z,100.0
2017-11-17T00:08:39.015Z,100.0
2017-11-17T00:09:40.621Z,100.0
2017-11-17T00:10:42.230Z,100.0
2017-11-17T00:11:43.846Z,100.0
2017-11-17T00:12:45.452Z,100.0
2017-11-17T00:13:47.070Z,100.0
2017-11-17T00:14:48.671Z,100.0
2017-11-17T00:15:50.285Z,100.0
2017-11-17T00:16:51.894Z,100.0
2017-11-17T00:17:54.825Z,100.0
2017-11-17T00:18:56.422Z,100.0
2017-11-17T00:19:58.037Z,100.0
2017-11-17T00:20:59.646Z,100.0
2017-11-17T00:22:01.255Z,100.0
2017-11-17T00:23:02.872Z,100.0
2017-11-17T00:24:04.476Z,100.0
2017-11-17T00:25:06.089Z,100.0
2017-11-17T00:26:07.703Z,100.0
2017-11-17T00:27:09.314Z,100.0
2017-11-17T00:28:10.921Z,100.0
2017-11-17T00:29:12.528Z,100.0
2017-11-17T00:30:14.138Z,100.0
2017-11-17T00:31:15.752Z,100.0
2017-11-17T00:32:17.364Z,100.0
2017-11-17T00:33:18.972Z,100.0
2017-11-17T00:34:20.581Z,100.0
2017-11-17T00:35:22.197Z,100.0
2017-11-17T00:36:23.808Z,100.0
2017-11-17T00:37:25.413Z,100.0
2017-11-17T00:38:27.023Z,100.0
2017-11-17T00:39:28.631Z,100.0
2017-11-17T00:40:30.247Z,100.0
2017-11-17T00:41:31.852Z,100.0
2017-11-17T00:42:33.462Z,100.0
2017-11-17T00:43:35.078Z,100.0
2017-11-17T00:44:36.687Z,100.0
2017-11-17T00:45:38.298Z,100.0
2017-11-17T00:46:39.906Z,100.0
2017-11-17T00:47:41.519Z,100.0
2017-11-17T00:48:43.128Z,100.0
2017-11-17T00:49:44.743Z,100.0
2017-11-17T00:50:46.346Z,100.0
2017-11-17T00:51:47.964Z,100.0
2017-11-17T00:52:49.568Z,100.0
2017-11-17T00:53:51.184Z,100.0
2017-11-17T00:54:52.794Z,100.0
2017-11-17T00:55:54.407Z,100.0
2017-11-17T00:56:56.021Z,100.0
2017-11-17T00:57:57.627Z,100.0
2017-11-17T00:58:59.239Z,100.0
2017-11-17T01:00:00.850Z,100.0
2017-11-17T01:01:02.454Z,100.0
2017-11-17T01:02:04.070Z,100.0
2017-11-17T01:03:05.680Z,100.0
2017-11-17T01:04:07.284Z,100.0
2017-11-17T01:05:08.895Z,100.0
2017-11-17T01:06:10.498Z,100.0
2017-11-17T01:07:12.109Z,100.0
2017-11-17T01:08:13.714Z,100.0
2017-11-17T01:09:15.329Z,100.0
2017-11-17T01:10:16.940Z,100.0
2017-11-17T01:11:18.550Z,100.0
2017-11-17T01:12:20.159Z,100.0
2017-11-17T01:13:21.764Z,100.0
2017-11-17T01:14:23.373Z,100.0
2017-11-17T01:15:24.982Z,100.0
2017-11-17T01:16:26.589Z,100.0
2017-11-17T01:17:28.205Z,100.0
2017-11-17T01:18:29.807Z,100.0
2017-11-17T01:19:31.415Z,100.0
2017-11-17T01:20:33.026Z,100.0
2017-11-17T01:21:34.635Z,100.0
2017-11-17T01:22:36.241Z,100.0
2017-11-17T01:23:37.849Z,100.0
2017-11-17T01:24:39.462Z,100.0
2017-11-17T01:25:41.071Z,100.0
2017-11-17T01:26:42.678Z,100.0
2017-11-17T01:27:44.285Z,100.0
2017-11-17T01:28:45.900Z,100.0
2017-11-17T01:29:47.505Z,100.0
2017-11-17T01:30:49.121Z,100.0
2017-11-17T01:31:50.733Z,100.0
2017-11-17T01:32:52.341Z,100.0
2017-11-17T01:33:53.947Z,100.0
2017-11-17T01:34:55.553Z,100.0
2017-11-17T01:35:57.172Z,100.0
2017-11-17T01:36:58.770Z,100.0
2017-11-17T01:38:00.383Z,100.0
2017-11-17T01:39:01.991Z,100.0
2017-11-17T01:40:03.601Z,100.0
2017-11-17T01:41:05.204Z,100.0
2017-11-17T01:42:06.814Z,100.0
2017-11-17T01:43:08.426Z,100.0
2017-11-17T01:44:10.037Z,100.0
2017-11-17T01:45:11.644Z,100.0
2017-11-17T01:46:13.257Z,100.0
2017-11-17T01:47:14.859Z,100.0
2017-11-17T01:48:16.466Z,100.0
2017-11-17T01:49:18.075Z,100.0
2017-11-17T01:50:19.688Z,100.0
2017-11-17T01:51:21.302Z,100.0
2017-11-17T01:52:22.912Z,100.0
2017-11-17T01:53:24.519Z,100.0
2017-11-17T01:54:26.126Z,100.0
2017-11-17T01:55:27.739Z,100.0
2017-11-17T01:56:29.349Z,100.0
2017-11-17T01:57:30.956Z,100.0
2017-11-17T01:58:32.563Z,100.0
2017-11-17T01:59:34.181Z,100.0
2017-11-17T02:00:35.987Z,100.0
2017-11-17T02:01:37.593Z,100.0
2017-11-17T02:02:39.203Z,100.0
2017-11-17T02:03:40.811Z,100.0
2017-11-17T02:04:42.428Z,100.0
2017-11-17T02:05:44.032Z,100.0
2017-11-17T02:06:45.642Z,100.0
2017-11-17T02:07:47.254Z,100.0
2017-11-17T02:08:48.859Z,100.0
2017-11-17T02:09:50.473Z,100.0
2017-11-17T02:10:52.081Z,100.0
2017-11-17T02:11:53.685Z,100.0
2017-11-17T02:12:55.294Z,100.0
2017-11-17T02:13:56.907Z,100.0
2017-11-17T02:14:58.521Z,100.0
2017-11-17T02:16:00.127Z,100.0
2017-11-17T02:17:01.733Z,100.0
2017-11-17T02:18:03.350Z,100.0
2017-11-17T02:19:04.958Z,100.0
2017-11-17T02:20:06.564Z,100.0
2017-11-17T02:21:08.174Z,100.0
2017-11-17T02:22:09.786Z,100.0
2017-11-17T02:23:11.395Z,100.0
2017-11-17T02:24:12.998Z,100.0
2017-11-17T02:25:14.604Z,100.0
2017-11-17T02:26:16.217Z,100.0
2017-11-17T02:27:17.821Z,100.0
2017-11-17T02:28:19.435Z,100.0
2017-11-17T02:29:21.052Z,100.0
2017-11-17T02:30:22.654Z,100.0
2017-11-17T02:31:24.266Z,100.0
2017-11-17T02:32:25.869Z,100.0
2017-11-17T02:33:27.486Z,100.0
2017-11-17T02:34:29.090Z,100.0
2017-11-17T02:35:30.708Z,100.0
2017-11-17T02:36:32.313Z,100.0
2017-11-17T02:37:33.923Z,100.0
2017-11-17T02:38:35.526Z,100.0
2017-11-17T02:39:37.139Z,100.0
2017-11-17T02:40:38.745Z,100.0
2017-11-17T02:41:40.356Z,100.0
2017-11-17T02:42:41.962Z,100.0
2017-11-17T02:43:43.570Z,100.0
2017-11-17T02:44:45.185Z,100.0
2017-11-17T02:45:46.797Z,100.0
2017-11-17T02:46:48.401Z,100.0
2017-11-17T02:47:50.012Z,100.0
2017-11-17T02:48:51.627Z,100.0
2017-11-17T02:49:53.237Z,100.0
2017-11-17T02:50:54.843Z,100.0
2017-11-17T02:51:56.450Z,100.0
2017-11-17T02:52:58.062Z,100.0
2017-11-17T02:53:59.671Z,100.0
2017-11-17T02:55:01.276Z,100.0
2017-11-17T02:56:02.884Z,100.0
2017-11-17T02:57:04.496Z,100.0
2017-11-17T02:58:06.104Z,100.0
2017-11-17T02:59:07.716Z,100.0
2017-11-17T03:00:09.325Z,100.0
2017-11-17T03:01:10.930Z,100.0
2017-11-17T03:02:12.539Z,100.0
2017-11-17T03:03:14.150Z,100.0
2017-11-17T03:04:15.761Z,100.0
2017-11-17T03:05:17.365Z,100.0
2017-11-17T03:06:18.976Z,100.0
2017-11-17T03:07:20.581Z,100.0
2017-11-17T03:08:22.185Z,100.0
2017-11-17T03:09:23.804Z,100.0
2017-11-17T03:10:25.408Z,100.0
2017-11-17T03:11:27.035Z,100.0
2017-11-17T03:12:28.623Z,100.0
2017-11-17T03:13:30.229Z,100.0
2017-11-17T03:14:31.839Z,100.0
2017-11-17T03:15:33.442Z,100.0
2017-11-17T03:16:35.050Z,100.0
2017-11-17T03:17:36.663Z,100.0
2017-11-17T03:18:38.273Z,100.0
2017-11-17T03:19:39.876Z,100.0
2017-11-17T03:20:41.481Z,100.0
2017-11-17T03:21:43.094Z,100.0
2017-11-17T03:22:44.697Z,100.0
2017-11-17T03:23:46.309Z,100.0
2017-11-17T03:24:47.914Z,100.0
2017-11-17T03:25:49.526Z,100.0
2017-11-17T03:26:51.132Z,100.0
2017-11-17T03:27:52.738Z,100.0
2017-11-17T03:28:54.342Z,100.0
2017-11-17T03:29:55.953Z,100.0
2017-11-17T03:30:57.566Z,100.0
2017-11-17T03:31:59.169Z,100.0
2017-11-17T03:33:00.775Z,100.0
2017-11-17T03:34:02.393Z,100.0
2017-11-17T03:35:03.996Z,100.0
2017-11-17T03:36:05.600Z,100.0
2017-11-17T03:37:07.206Z,100.0
2017-11-17T03:38:08.818Z,100.0
2017-11-17T03:39:10.428Z,100.0
2017-11-17T03:40:12.032Z,100.0
2017-11-17T03:41:13.646Z,100.0
2017-11-17T03:42:15.443Z,100.0
2017-11-17T03:43:17.132Z,100.0
2017-11-17T03:44:18.768Z,100.0
2017-11-17T03:45:20.447Z,100.0
2017-11-17T03:46:22.070Z,100.0
2017-11-17T03:47:23.726Z,100.0
2017-11-17T03:48:25.372Z,100.0
2017-11-17T03:49:26.982Z,100.0
2017-11-17T03:50:28.634Z,100.0
2017-11-17T03:51:30.240Z,100.0
2017-11-17T03:52:31.864Z,100.0
2017-11-17T03:53:33.461Z,100.0
2017-11-17T03:54:35.070Z,100.0
2017-11-17T03:55:36.681Z,100.0
2017-11-17T03:56:38.350Z,100.0
2017-11-17T03:57:39.968Z,100.0
2017-11-17T03:58:41.581Z,100.0
2017-11-17T03:59:43.191Z,100.0
2017-11-17T04:00:44.797Z,100.0
2017-11-17T04:01:46.404Z,100.0
2017-11-17T04:02:48.019Z,100.0
2017-11-17T04:03:49.630Z,100.0
2017-11-17T04:04:51.233Z,100.0
2017-11-17T04:05:52.834Z,100.0
2017-11-17T04:06:54.449Z,100.0
2017-11-17T04:07:56.057Z,100.0
2017-11-17T04:08:57.677Z,100.0
2017-11-17T04:09:59.293Z,100.0
2017-11-17T04:11:00.908Z,100.0
2017-11-17T04:12:02.509Z,100.0
2017-11-17T04:13:04.119Z,100.0
2017-11-17T04:14:05.728Z,100.0
2017-11-17T04:15:07.327Z,100.0
2017-11-17T04:16:08.939Z,100.0
2017-11-17T04:17:10.551Z,100.0
2017-11-17T04:18:12.161Z,100.0
2017-11-17T04:19:13.761Z,100.0
2017-11-17T04:20:15.377Z,100.0
2017-11-17T04:21:16.978Z,100.0
2017-11-17T04:22:18.591Z,100.0
2017-11-17T04:23:20.193Z,100.0
2017-11-17T04:24:21.833Z,100.0
2017-11-17T04:25:23.437Z,100.0
2017-11-17T04:26:25.044Z,100.0
2017-11-17T04:27:26.828Z,100.0
2017-11-17T04:28:29.088Z,100.0
2017-11-17T04:29:30.701Z,100.0
2017-11-17T04:30:32.309Z,100.0
2017-11-17T04:31:34.147Z,100.0
2017-11-17T04:32:35.757Z,100.0
2017-11-17T04:33:37.363Z,100.0
2017-11-17T04:34:38.967Z,100.0
2017-11-17T04:35:40.578Z,100.0
2017-11-17T04:36:42.187Z,100.0
2017-11-17T04:37:43.793Z,100.0
2017-11-17T04:38:45.399Z,100.0
2017-11-17T04:39:47.010Z,100.0
2017-11-17T04:40:48.619Z,100.0
2017-11-17T04:41:50.231Z,100.0
2017-11-17T04:42:51.849Z,100.0
2017-11-17T04:43:53.455Z,100.0
2017-11-17T04:44:55.193Z,100.0
2017-11-17T04:45:56.798Z,100.0
2017-11-17T04:46:58.406Z,100.0
2017-11-17T04:48:00.011Z,100.0
2017-11-17T04:49:01.621Z,100.0
2017-11-17T04:50:03.223Z,100.0
2017-11-17T04:51:04.841Z,100.0
2017-11-17T04:52:06.553Z,100.0
2017-11-17T04:53:08.167Z,100.0
2017-11-17T04:54:09.785Z,100.0
2017-11-17T04:55:11.389Z,100.0
2017-11-17T04:56:16.997Z,100.0
2017-11-17T04:57:21.497Z,100.0
2017-11-17T04:58:23.148Z,100.0
2017-11-17T04:59:24.739Z,100.0
2017-11-17T05:00:26.350Z,100.0
2017-11-17T05:01:27.951Z,100.0
2017-11-17T05:02:29.561Z,100.0
2017-11-17T05:03:31.170Z,100.0
2017-11-17T05:04:32.774Z,100.0
2017-11-17T05:05:34.377Z,100.0
2017-11-17T05:06:35.991Z,100.0
2017-11-17T05:07:37.600Z,100.0
2017-11-17T05:08:39.200Z,100.0
2017-11-17T05:09:40.811Z,100.0
2017-11-17T05:10:42.430Z,100.0
2017-11-17T05:11:44.037Z,100.0
2017-11-17T05:12:45.646Z,100.0
2017-11-17T05:13:47.248Z,100.0
2017-11-17T05:14:49.148Z,100.0
2017-11-17T05:15:50.747Z,100.0
2017-11-17T05:16:52.355Z,100.0
2017-11-17T05:17:53.958Z,100.0
2017-11-17T05:18:55.578Z,100.0
2017-11-17T05:19:57.222Z,100.0
2017-11-17T05:20:58.825Z,100.0
2017-11-17T05:22:00.639Z,100.0
2017-11-17T05:23:02.259Z,100.0
2017-11-17T05:24:03.866Z,100.0
2017-11-17T05:25:05.468Z,100.0
2017-11-17T05:26:07.122Z,100.0
2017-11-17T05:27:10.201Z,100.0
2017-11-17T05:28:11.866Z,100.0
2017-11-17T05:29:13.477Z,100.0
2017-11-17T05:30:15.311Z,100.0
2017-11-17T05:31:16.924Z,100.0
2017-11-17T05:32:18.534Z,100.0
2017-11-17T05:33:20.144Z,100.0
2017-11-17T05:34:21.747Z,100.0
2017-11-17T05:35:23.357Z,100.0
2017-11-17T05:36:24.962Z,100.0
2017-11-17T05:37:26.573Z,100.0
2017-11-17T05:38:28.175Z,100.0
2017-11-17T05:39:29.786Z,100.0
2017-11-17T05:40:31.389Z,100.0
2017-11-17T05:41:33.002Z,100.0
2017-11-17T05:42:34.607Z,100.0
2017-11-17T05:43:36.225Z,100.0
2017-11-17T05:44:37.825Z,100.0
2017-11-17T05:45:39.427Z,100.0
2017-11-17T05:46:41.030Z,100.0
2017-11-17T05:47:42.640Z,100.0
2017-11-17T05:48:44.248Z,100.0
2017-11-17T05:49:45.852Z,100.0
2017-11-17T05:50:47.465Z,100.0
2017-11-17T05:51:49.065Z,100.0
2017-11-17T05:52:50.678Z,100.0
2017-11-17T05:53:52.282Z,100.0
2017-11-17T05:54:53.890Z,100.0
2017-11-17T05:55:55.493Z,100.0
2017-11-17T05:56:57.108Z,100.0
2017-11-17T05:57:58.710Z,100.0
2017-11-17T05:59:00.321Z,100.0
2017-11-17T06:00:01.930Z,100.0
2017-11-17T06:01:03.539Z,100.0
2017-11-17T06:02:05.141Z,100.0
2017-11-17T06:03:06.753Z,100.0
2017-11-17T06:04:08.357Z,100.0
2017-11-17T06:05:09.969Z,100.0
2017-11-17T06:06:11.576Z,100.0
2017-11-17T06:07:13.179Z,100.0
2017-11-17T06:08:14.788Z,100.0
2017-11-17T06:09:16.403Z,100.0
2017-11-17T06:10:18.000Z,100.0
2017-11-17T06:11:19.608Z,100.0
2017-11-17T06:12:21.221Z,100.0
2017-11-17T06:13:22.828Z,100.0
2017-11-17T06:14:24.430Z,100.0
2017-11-17T06:15:26.040Z,100.0
2017-11-17T06:16:27.643Z,100.0
2017-11-17T06:17:29.254Z,100.0
2017-11-17T06:18:30.857Z,100.0
2017-11-17T06:19:32.465Z,100.0
2017-11-17T06:20:34.075Z,100.0
2017-11-17T06:21:35.684Z,100.0
2017-11-17T06:22:37.286Z,100.0
2017-11-17T06:23:38.892Z,100.0
2017-11-17T06:24:40.503Z,100.0
2017-11-17T06:25:42.110Z,100.0
2017-11-17T06:26:43.721Z,100.0
2017-11-17T06:27:45.321Z,100.0
2017-11-17T06:28:46.931Z,100.0
2017-11-17T06:29:48.534Z,100.0
2017-11-17T06:30:50.145Z,100.0
2017-11-17T06:31:51.757Z,100.0
2017-11-17T06:32:53.362Z,100.0
2017-11-17T06:33:54.969Z,100.0
2017-11-17T06:34:56.589Z,100.0
2017-11-17T06:35:58.181Z,100.0
2017-11-17T06:36:59.792Z,100.0
2017-11-17T06:38:01.397Z,100.0
2017-11-17T06:39:03.007Z,100.0
2017-11-17T06:40:04.616Z,100.0
2017-11-17T06:41:06.223Z,100.0
2017-11-17T06:42:07.837Z,100.0
2017-11-17T06:43:09.439Z,100.0
2017-11-17T06:44:11.053Z,100.0
2017-11-17T06:45:12.657Z,100.0
2017-11-17T06:46:14.274Z,100.0
2017-11-17T06:47:15.881Z,100.0
2017-11-17T06:48:17.496Z,100.0
2017-11-17T06:49:19.104Z,100.0
2017-11-17T06:50:20.713Z,100.0
2017-11-17T06:51:22.328Z,100.0
2017-11-17T06:52:23.940Z,100.0
2017-11-17T06:53:25.546Z,100.0
2017-11-17T06:54:27.165Z,100.0
2017-11-17T06:55:28.775Z,100.0
2017-11-17T06:56:30.380Z,100.0
2017-11-17T06:57:31.992Z,100.0
2017-11-17T06:58:33.603Z,100.0
2017-11-17T06:59:35.211Z,100.0
2017-11-17T07:00:36.823Z,100.0
2017-11-17T07:01:38.436Z,100.0
2017-11-17T07:02:40.051Z,100.0
2017-11-17T07:03:41.656Z,100.0
2017-11-17T07:04:43.261Z,100.0
2017-11-17T07:05:44.878Z,100.0
2017-11-17T07:06:46.485Z,100.0
2017-11-17T07:07:48.097Z,100.0
2017-11-17T07:08:49.705Z,100.0
2017-11-17T07:09:51.323Z,100.0
2017-11-17T07:10:52.924Z,100.0
2017-11-17T07:11:54.536Z,100.0
2017-11-17T07:12:56.149Z,100.0
2017-11-17T07:13:57.756Z,100.0
2017-11-17T07:14:59.362Z,100.0
2017-11-17T07:16:00.977Z,100.0
2017-11-17T07:17:02.602Z,100.0
2017-11-17T07:18:04.206Z,100.0
2017-11-17T07:19:05.813Z,100.0
2017-11-17T07:20:07.426Z,100.0
2017-11-17T07:21:09.038Z,100.0
2017-11-17T07:22:10.654Z,100.0
2017-11-17T07:23:12.267Z,100.0
2017-11-17T07:24:13.876Z,100.0
2017-11-17T07:25:15.489Z,100.0
2017-11-17T07:26:17.100Z,100.0
2017-11-17T07:27:18.714Z,100.0
2017-11-17T07:28:20.325Z,100.0
2017-11-17T07:29:21.946Z,100.0
2017-11-17T07:30:23.552Z,100.0
2017-11-17T07:31:25.169Z,100.0
2017-11-17T07:32:26.779Z,100.0
2017-11-17T07:33:28.396Z,100.0
2017-11-17T07:34:30.004Z,100.0
2017-11-17T07:35:31.620Z,100.0
2017-11-17T07:36:33.231Z,100.0
2017-11-17T07:37:34.846Z,100.0
2017-11-17T07:38:36.457Z,100.0
2017-11-17T07:39:38.067Z,100.0
2017-11-17T07:40:39.687Z,100.0
2017-11-17T07:41:41.298Z,100.0
2017-11-17T07:42:42.907Z,100.0
2017-11-17T07:43:44.518Z,100.0
2017-11-17T07:44:46.137Z,100.0
2017-11-17T07:45:47.751Z,100.0
2017-11-17T07:46:49.358Z,100.0
2017-11-17T07:47:50.971Z,100.0
2017-11-17T07:48:52.587Z,100.0
2017-11-17T07:49:54.198Z,100.0
2017-11-17T07:50:55.809Z,100.0
2017-11-17T07:51:57.422Z,100.0
2017-11-17T07:52:59.038Z,100.0
2017-11-17T07:54:00.651Z,100.0
2017-11-17T07:55:02.266Z,100.0
2017-11-17T07:56:03.870Z,100.0
2017-11-17T07:57:05.516Z,100.0
2017-11-17T07:58:07.095Z,100.0
2017-11-17T07:59:08.706Z,100.0
2017-11-17T08:00:10.319Z,100.0
2017-11-17T08:01:11.936Z,100.0
2017-11-17T08:02:13.547Z,100.0
2017-11-17T08:03:15.157Z,100.0
2017-11-17T08:04:16.769Z,100.0
2017-11-17T08:05:18.384Z,100.0
2017-11-17T08:06:20.003Z,100.0
2017-11-17T08:07:21.615Z,100.0
2017-11-17T08:08:23.226Z,100.0
2017-11-17T08:09:24.838Z,100.0
2017-11-17T08:10:26.448Z,100.0
2017-11-17T08:11:28.065Z,100.0
2017-11-17T08:12:29.676Z,100.0
2017-11-17T08:13:31.296Z,100.0
2017-11-17T08:14:32.907Z,100.0
2017-11-17T08:15:34.522Z,100.0
2017-11-17T08:16:36.133Z,100.0
2017-11-17T08:17:37.753Z,100.0
2017-11-17T08:18:39.359Z,100.0
2017-11-17T08:19:40.978Z,100.0
2017-11-17T08:20:42.588Z,100.0
2017-11-17T08:21:44.209Z,100.0
2017-11-17T08:22:45.819Z,100.0
2017-11-17T08:23:47.433Z,100.0
2017-11-17T08:24:49.045Z,100.0
2017-11-17T08:25:50.657Z,100.0
2017-11-17T08:26:52.274Z,100.0
2017-11-17T08:27:53.881Z,100.0
2017-11-17T08:28:55.500Z,100.0
2017-11-17T08:29:57.109Z,100.0
2017-11-17T08:30:58.725Z,100.0
2017-11-17T08:32:00.336Z,100.0
2017-11-17T08:33:01.954Z,100.0
2017-11-17T08:34:03.565Z,100.0
2017-11-17T08:35:05.182Z,100.0
2017-11-17T08:36:06.800Z,100.0
2017-11-17T08:37:08.413Z,100.0
2017-11-17T08:38:10.992Z,100.0
2017-11-17T08:39:12.664Z,100.0
2017-11-17T08:40:14.276Z,100.0
2017-11-17T08:41:15.891Z,99.3
2017-11-17T08:42:17.508Z,95.8
2017-11-17T08:43:19.122Z,90.0
2017-11-17T08:44:20.739Z,86.8
2017-11-17T08:45:22.357Z,85.9
2017-11-17T08:46:23.968Z,86.0
2017-11-17T08:47:26.358Z,85.9
2017-11-17T08:48:27.980Z,83.3
2017-11-17T08:49:29.593Z,84.3
2017-11-17T08:50:31.206Z,84.0
2017-11-17T08:51:32.826Z,82.6
2017-11-17T08:52:34.441Z,83.2
2017-11-17T08:53:36.052Z,83.5
2017-11-17T08:54:37.668Z,83.9
2017-11-17T08:55:39.282Z,84.8
2017-11-17T08:56:40.902Z,86.4
2017-11-17T08:57:42.527Z,86.3
2017-11-17T08:58:44.140Z,87.2
2017-11-17T08:59:45.748Z,87.3
2017-11-17T09:00:47.365Z,87.3
2017-11-17T09:01:48.985Z,86.7
2017-11-17T09:02:50.599Z,85.9
2017-11-17T09:03:52.211Z,84.9
2017-11-17T09:04:53.833Z,85.1
2017-11-17T09:05:55.451Z,86.2
2017-11-17T09:06:57.060Z,85.9
2017-11-17T09:07:58.680Z,84.5
2017-11-17T09:09:00.291Z,84.2
2017-11-17T09:10:01.906Z,84.3
2017-11-17T09:11:03.523Z,82.7
2017-11-17T09:12:05.145Z,82.6
2017-11-17T09:13:06.764Z,83.0
2017-11-17T09:14:08.378Z,83.5
2017-11-17T09:15:09.997Z,81.9
2017-11-17T09:16:11.610Z,81.6
2017-11-17T09:17:13.229Z,82.1
2017-11-17T09:18:14.845Z,80.8
2017-11-17T09:19:16.468Z,81.2
2017-11-17T09:20:18.076Z,80.5
2017-11-17T09:21:19.696Z,81.7
2017-11-17T09:22:21.311Z,81.9
2017-11-17T09:23:22.926Z,82.8
2017-11-17T09:24:24.543Z,83.4
2017-11-17T09:25:26.179Z,84.4
2017-11-17T09:26:27.789Z,84.2
2017-11-17T09:27:29.399Z,85.3
2017-11-17T09:28:31.017Z,86.1
2017-11-17T09:29:32.628Z,86.7
2017-11-17T09:30:34.250Z,87.2
2017-11-17T09:31:35.861Z,88.0
2017-11-17T09:32:37.482Z,87.6
2017-11-17T09:33:39.096Z,89.4
2017-11-17T09:34:40.715Z,88.8
2017-11-17T09:35:42.325Z,89.4
2017-11-17T09:36:43.946Z,89.9
2017-11-17T09:37:45.560Z,90.4
2017-11-17T09:38:47.179Z,90.5
2017-11-17T09:39:48.793Z,90.7
2017-11-17T09:40:50.413Z,90.3
2017-11-17T09:41:52.025Z,90.2
2017-11-17T09:42:53.645Z,89.2
2017-11-17T09:43:55.265Z,88.5
2017-11-17T09:44:56.886Z,87.9
2017-11-17T09:45:58.509Z,86.0
2017-11-17T09:47:00.133Z,84.5
2017-11-17T09:48:01.745Z,84.1
2017-11-17T09:49:03.360Z,82.8
2017-11-17T09:50:04.978Z,80.7
2017-11-17T09:51:06.599Z,82.0
2017-11-17T09:52:08.214Z,82.4
2017-11-17T09:53:09.823Z,81.9
2017-11-17T09:54:11.448Z,80.7
2017-11-17T09:55:13.068Z,79.3
2017-11-17T09:56:14.683Z,78.9
2017-11-17T09:57:16.295Z,76.1
2017-11-17T09:58:17.916Z,74.9
2017-11-17T09:59:19.542Z,75.2
2017-11-17T10:00:21.154Z,72.6
2017-11-17T10:01:22.772Z,74.9
2017-11-17T10:02:24.388Z,75.1
2017-11-17T10:03:26.006Z,75.2
2017-11-17T10:04:27.621Z,74.6
2017-11-17T10:05:29.240Z,73.3
2017-11-17T10:06:30.861Z,72.3
2017-11-17T10:07:32.481Z,71.8
2017-11-17T10:08:34.100Z,68.8
2017-11-17T10:09:35.712Z,67.8
2017-11-17T10:10:37.333Z,68.3
2017-11-17T10:11:38.950Z,68.4
2017-11-17T10:12:40.569Z,69.3
2017-11-17T10:13:42.181Z,70.7
2017-11-17T10:14:43.804Z,70.3
2017-11-17T10:15:45.425Z,69.4
2017-11-17T10:16:47.048Z,69.5
2017-11-17T10:17:48.656Z,70.6
2017-11-17T10:18:50.270Z,72.4
2017-11-17T10:19:51.892Z,72.6
2017-11-17T10:20:53.509Z,72.9
2017-11-17T10:21:55.125Z,72.6
2017-11-17T10:22:56.747Z,74.5
2017-11-17T10:23:58.365Z,73.1
2017-11-17T10:24:59.987Z,73.8
2017-11-17T10:26:01.596Z,73.2
2017-11-17T10:27:03.217Z,73.0
2017-11-17T10:28:04.830Z,73.7
2017-11-17T10:29:06.458Z,74.5
2017-11-17T10:30:08.070Z,75.2
2017-11-17T10:31:09.690Z,77.1
2017-11-17T10:32:11.303Z,77.9
2017-11-17T10:33:12.920Z,77.7
2017-11-17T10:34:14.534Z,76.9
2017-11-17T10:35:16.150Z,76.2
2017-11-17T10:36:17.769Z,75.3
2017-11-17T10:37:19.388Z,75.1
2017-11-17T10:38:21.009Z,75.7
2017-11-17T10:39:22.620Z,76.7
2017-11-17T10:40:24.235Z,76.6
2017-11-17T10:41:25.854Z,76.4
2017-11-17T10:42:27.471Z,77.3
2017-11-17T10:43:29.088Z,78.3
2017-11-17T10:44:30.701Z,78.3
2017-11-17T10:45:32.326Z,79.7
2017-11-17T10:46:33.943Z,80.4
2017-11-17T10:47:35.553Z,80.2
2017-11-17T10:48:37.169Z,81.1
2017-11-17T10:49:38.786Z,81.5
2017-11-17T10:50:40.410Z,81.7
2017-11-17T10:51:42.018Z,81.8
2017-11-17T10:52:43.632Z,81.6
2017-11-17T10:53:45.250Z,82.2
2017-11-17T10:54:46.861Z,82.8
2017-11-17T10:55:48.477Z,82.4
2017-11-17T10:56:50.093Z,81.8
2017-11-17T10:57:51.713Z,81.7
2017-11-17T10:58:53.328Z,80.6
2017-11-17T10:59:54.949Z,79.5
2017-11-17T11:00:56.558Z,78.0
2017-11-17T11:01:58.183Z,78.0
2017-11-17T11:02:59.835Z,76.0
2017-11-17T11:04:01.453Z,75.1
2017-11-17T11:05:03.077Z,72.4
2017-11-17T11:06:04.711Z,71.1
2017-11-17T11:07:06.325Z,68.9
2017-11-17T11:08:07.945Z,66.4
2017-11-17T11:09:09.560Z,66.5
2017-11-17T11:10:11.180Z,67.2
2017-11-17T11:11:12.803Z,65.2
2017-11-17T11:12:14.418Z,62.9
2017-11-17T11:13:16.044Z,62.1
2017-11-17T11:14:17.661Z,61.3
2017-11-17T11:15:19.283Z,59.7
2017-11-17T11:16:20.898Z,59.2
2017-11-17T11:17:22.518Z,59.5
2017-11-17T11:18:24.134Z,58.3
2017-11-17T11:19:25.758Z,59.4
2017-11-17T11:20:27.375Z,59.0
2017-11-17T11:21:29.004Z,60.3
2017-11-17T11:22:31.596Z,60.5
2017-11-17T11:23:33.218Z,60.7
2017-11-17T11:24:34.835Z,58.6
2017-11-17T11:25:36.463Z,57.9
2017-11-17T11:26:38.073Z,56.5
2017-11-17T11:27:39.700Z,58.0
2017-11-17T11:28:41.318Z,57.4
2017-11-17T11:29:42.941Z,58.1
2017-11-17T11:30:44.557Z,57.3
2017-11-17T11:31:46.180Z,55.8
2017-11-17T11:32:47.796Z,56.2
2017-11-17T11:33:49.413Z,56.8
2017-11-17T11:34:51.038Z,56.4
2017-11-17T11:35:52.659Z,58.3
2017-11-17T11:36:54.274Z,58.7
2017-11-17T11:37:55.889Z,60.4
2017-11-17T11:38:57.512Z,61.1
2017-11-17T11:39:59.131Z,62.3
2017-11-17T11:41:00.751Z,62.5
2017-11-17T11:42:02.371Z,63.6
2017-11-17T11:43:03.993Z,64.0
2017-11-17T11:44:05.612Z,64.6
2017-11-17T11:45:07.225Z,64.5
2017-11-17T11:46:08.842Z,65.2
2017-11-17T11:47:10.467Z,65.5
2017-11-17T11:48:12.087Z,65.7
2017-11-17T11:49:13.704Z,64.6
2017-11-17T11:50:15.809Z,64.5
2017-11-17T11:51:17.431Z,64.1
2017-11-17T11:52:19.048Z,62.8
2017-11-17T11:53:20.670Z,60.7
2017-11-17T11:54:22.291Z,59.8
2017-11-17T11:55:23.906Z,59.5
2017-11-17T11:56:25.524Z,58.9
2017-11-17T11:57:27.149Z,58.5
2017-11-17T11:58:28.773Z,56.3
2017-11-17T11:59:30.383Z,57.3
2017-11-17T12:00:31.997Z,57.0
2017-11-17T12:01:33.617Z,55.2
2017-11-17T12:02:35.234Z,54.9
2017-11-17T12:03:36.855Z,55.4
2017-11-17T12:04:38.469Z,52.9
2017-11-17T12:05:40.089Z,52.9
2017-11-17T12:06:41.704Z,53.4
2017-11-17T12:07:43.322Z,53.1
2017-11-17T12:08:44.939Z,54.9
2017-11-17T12:09:46.554Z,52.3
2017-11-17T12:10:48.173Z,52.2
2017-11-17T12:11:49.795Z,51.8
2017-11-17T12:12:51.416Z,52.5
2017-11-17T12:13:53.022Z,52.1
2017-11-17T12:14:54.639Z,53.1
2017-11-17T12:15:56.259Z,53.5
2017-11-17T12:16:57.877Z,52.5
2017-11-17T12:17:59.491Z,51.5
2017-11-17T12:19:01.115Z,52.6
2017-11-17T12:20:02.728Z,52.1
2017-11-17T12:21:04.345Z,52.3
2017-11-17T12:22:05.960Z,51.5
2017-11-17T12:23:07.581Z,51.0
2017-11-17T12:24:09.191Z,50.0
2017-11-17T12:25:10.814Z,50.8
2017-11-17T12:26:12.436Z,51.5
2017-11-17T12:27:14.046Z,50.3
2017-11-17T12:28:15.669Z,49.6
2017-11-17T12:29:17.280Z,49.4
2017-11-17T12:30:18.903Z,50.7
2017-11-17T12:31:20.517Z,51.5
2017-11-17T12:32:22.140Z,51.5
2017-11-17T12:33:23.760Z,51.3
2017-11-17T12:34:25.373Z,50.6
2017-11-17T12:35:26.986Z,50.8
2017-11-17T12:36:28.636Z,51.3
2017-11-17T12:37:30.219Z,53.1
2017-11-17T12:38:31.840Z,53.1
2017-11-17T12:39:33.456Z,52.4
2017-11-17T12:40:35.082Z,53.1
2017-11-17T12:41:36.695Z,53.5
2017-11-17T12:42:38.308Z,53.9
2017-11-17T12:43:39.930Z,54.1
2017-11-17T12:44:41.541Z,53.8
2017-11-17T12:45:43.160Z,55.1
2017-11-17T12:46:44.780Z,56.0
2017-11-17T12:47:46.400Z,56.2
2017-11-17T12:48:48.013Z,54.2
2017-11-17T12:49:49.628Z,53.8
2017-11-17T12:50:51.252Z,53.9
2017-11-17T12:51:52.865Z,54.1
2017-11-17T12:52:54.477Z,53.7
2017-11-17T12:53:56.092Z,54.2
2017-11-17T12:54:57.717Z,54.1
2017-11-17T12:55:59.336Z,52.8
2017-11-17T12:57:00.946Z,53.9
2017-11-17T12:58:02.560Z,55.8
2017-11-17T12:59:04.179Z,54.9
2017-11-17T13:00:05.801Z,54.4
2017-11-17T13:01:07.421Z,55.3
2017-11-17T13:02:09.033Z,55.7
2017-11-17T13:03:10.645Z,56.3
2017-11-17T13:04:12.267Z,56.3
2017-11-17T13:05:13.877Z,56.4
2017-11-17T13:06:15.498Z,56.0
2017-11-17T13:07:17.113Z,57.9
2017-11-17T13:08:18.729Z,57.1
2017-11-17T13:09:20.352Z,56.9
2017-11-17T13:10:21.962Z,58.2
2017-11-17T13:11:23.581Z,59.2
2017-11-17T13:12:25.194Z,58.2
2017-11-17T13:13:26.816Z,58.1
2017-11-17T13:14:28.429Z,58.1
2017-11-17T13:15:30.046Z,59.0
2017-11-17T13:16:31.661Z,58.7
2017-11-17T13:17:33.278Z,59.2
2017-11-17T13:18:34.896Z,59.8
2017-11-17T13:19:36.505Z,60.5
2017-11-17T13:20:38.121Z,60.7
2017-11-17T13:21:39.741Z,60.9
2017-11-17T13:22:41.361Z,61.8